sensor_id;sensor_type;location;lat;lon;timestamp;pressure;altitude;pressure_sealevel;temperature;humidity
39491;BME280;25175;50.140;18.990;2023-09-07T00:01:30;99336.81;;;15.18;59.81
39491;BME280;25175;50.140;18.990;2023-09-07T00:04:36;99343.28;;;15.23;59.29
39491;BME280;25175;50.140;18.990;2023-09-07T00:07:40;99338.16;;;15.27;58.88
39491;BME280;25175;50.140;18.990;2023-09-07T00:10:46;99335.88;;;15.31;58.93
39491;BME280;25175;50.140;18.990;2023-09-07T00:13:53;99336.34;;;15.28;58.75
39491;BME280;25175;50.140;18.990;2023-09-07T00:20:33;99345.44;;;15.32;58.46
39491;BME280;25175;50.140;18.990;2023-09-07T00:23:39;99345.66;;;15.31;58.52
39491;BME280;25175;50.140;18.990;2023-09-07T00:26:45;99345.50;;;15.26;58.44
39491;BME280;25175;50.140;18.990;2023-09-07T00:29:56;99332.53;;;15.18;58.67
39491;BME280;25175;50.140;18.990;2023-09-07T00:33:19;99333.28;;;15.24;58.35
39491;BME280;25175;50.140;18.990;2023-09-07T00:36:24;99340.44;;;15.24;58.21
39491;BME280;25175;50.140;18.990;2023-09-07T00:39:29;99345.34;;;15.21;58.33
39491;BME280;25175;50.140;18.990;2023-09-07T00:42:35;99340.47;;;15.18;58.38
39491;BME280;25175;50.140;18.990;2023-09-07T00:45:42;99343.94;;;15.18;58.33
39491;BME280;25175;50.140;18.990;2023-09-07T00:48:50;99333.56;;;15.17;57.85
39491;BME280;25175;50.140;18.990;2023-09-07T00:51:55;99322.69;;;15.07;57.87
39491;BME280;25175;50.140;18.990;2023-09-07T00:55:02;99338.13;;;15.10;58.00
39491;BME280;25175;50.140;18.990;2023-09-07T00:58:07;99335.16;;;15.00;57.98
39491;BME280;25175;50.140;18.990;2023-09-07T01:01:16;99334.94;;;15.01;57.88
39491;BME280;25175;50.140;18.990;2023-09-07T01:04:21;99338.00;;;14.98;57.95
39491;BME280;25175;50.140;18.990;2023-09-07T01:07:32;99338.84;;;14.92;57.93
39491;BME280;25175;50.140;18.990;2023-09-07T01:10:41;99344.81;;;14.88;58.11
39491;BME280;25175;50.140;18.990;2023-09-07T01:13:46;99272.50;;;14.45;58.08
39491;BME280;25175;50.140;18.990;2023-09-07T01:16:54;99337.28;;;14.85;58.27
39491;BME280;25175;50.140;18.990;2023-09-07T01:20:12;99335.88;;;14.82;58.39
39491;BME280;25175;50.140;18.990;2023-09-07T01:23:47;99322.03;;;14.49;58.28
39491;BME280;25175;50.140;18.990;2023-09-07T01:26:59;99343.00;;;14.82;58.44
39491;BME280;25175;50.140;18.990;2023-09-07T01:30:06;99325.75;;;14.73;58.62
39491;BME280;25175;50.140;18.990;2023-09-07T01:33:13;99347.84;;;14.78;58.66
39491;BME280;25175;50.140;18.990;2023-09-07T01:36:17;99340.00;;;14.72;58.68
39491;BME280;25175;50.140;18.990;2023-09-07T01:39:25;99343.66;;;14.71;58.82
39491;BME280;25175;50.140;18.990;2023-09-07T01:42:31;99341.88;;;14.65;58.78
39491;BME280;25175;50.140;18.990;2023-09-07T01:45:36;99346.56;;;14.63;58.82
39491;BME280;25175;50.140;18.990;2023-09-07T01:48:41;99347.00;;;14.60;58.77
39491;BME280;25175;50.140;18.990;2023-09-07T01:51:46;99349.47;;;14.55;58.73
39491;BME280;25175;50.140;18.990;2023-09-07T01:54:55;99341.94;;;14.52;58.95
39491;BME280;25175;50.140;18.990;2023-09-07T01:58:00;99338.09;;;14.48;58.84
39491;BME280;25175;50.140;18.990;2023-09-07T02:01:05;99320.28;;;14.37;58.91
39491;BME280;25175;50.140;18.990;2023-09-07T02:04:10;99325.75;;;14.42;58.66
39491;BME280;25175;50.140;18.990;2023-09-07T02:07:15;99297.25;;;14.19;58.69
39491;BME280;25175;50.140;18.990;2023-09-07T02:10:50;99327.63;;;14.35;58.42
39491;BME280;25175;50.140;18.990;2023-09-07T02:13:54;99322.78;;;14.32;58.34
39491;BME280;25175;50.140;18.990;2023-09-07T02:17:00;99330.50;;;14.27;58.59
39491;BME280;25175;50.140;18.990;2023-09-07T02:20:05;99327.69;;;14.22;58.86
39491;BME280;25175;50.140;18.990;2023-09-07T02:23:13;99324.66;;;14.18;59.10
39491;BME280;25175;50.140;18.990;2023-09-07T02:26:38;99328.53;;;14.16;59.58
39491;BME280;25175;50.140;18.990;2023-09-07T02:29:48;99318.38;;;14.13;59.43
39491;BME280;25175;50.140;18.990;2023-09-07T02:32:52;99328.13;;;14.12;59.59
39491;BME280;25175;50.140;18.990;2023-09-07T02:35:58;99326.56;;;14.05;59.50
39491;BME280;25175;50.140;18.990;2023-09-07T02:39:03;99330.03;;;13.99;59.94
39491;BME280;25175;50.140;18.990;2023-09-07T02:42:13;99322.13;;;13.92;60.08
39491;BME280;25175;50.140;18.990;2023-09-07T02:45:48;99324.34;;;13.89;60.13
39491;BME280;25175;50.140;18.990;2023-09-07T02:48:57;99322.94;;;13.86;60.07
39491;BME280;25175;50.140;18.990;2023-09-07T02:52:02;99320.75;;;13.77;60.24
39491;BME280;25175;50.140;18.990;2023-09-07T02:55:08;99322.56;;;13.76;60.40
39491;BME280;25175;50.140;18.990;2023-09-07T02:58:15;99322.75;;;13.75;60.29
39491;BME280;25175;50.140;18.990;2023-09-07T03:01:21;99331.94;;;13.66;60.77
39491;BME280;25175;50.140;18.990;2023-09-07T03:04:29;99331.16;;;13.52;61.37
39491;BME280;25175;50.140;18.990;2023-09-07T03:07:44;99259.03;;;12.95;61.73
39491;BME280;25175;50.140;18.990;2023-09-07T03:10:52;99301.16;;;13.21;61.96
39491;BME280;25175;50.140;18.990;2023-09-07T03:14:00;99322.84;;;13.36;61.47
39491;BME280;25175;50.140;18.990;2023-09-07T03:17:05;99320.22;;;13.36;61.17
39491;BME280;25175;50.140;18.990;2023-09-07T03:23:40;99310.50;;;13.23;60.90
39491;BME280;25175;50.140;18.990;2023-09-07T03:26:47;99316.59;;;13.17;61.24
39491;BME280;25175;50.140;18.990;2023-09-07T03:29:54;99325.91;;;13.20;61.13
39491;BME280;25175;50.140;18.990;2023-09-07T03:33:39;99329.78;;;13.11;61.59
39491;BME280;25175;50.140;18.990;2023-09-07T03:36:44;99337.25;;;13.07;61.72
39491;BME280;25175;50.140;18.990;2023-09-07T03:39:50;99335.66;;;13.06;61.65
39491;BME280;25175;50.140;18.990;2023-09-07T03:42:55;99333.22;;;13.05;61.86
39491;BME280;25175;50.140;18.990;2023-09-07T03:46:05;99339.09;;;13.07;61.92
39491;BME280;25175;50.140;18.990;2023-09-07T03:49:14;99332.41;;;13.11;61.59
39491;BME280;25175;50.140;18.990;2023-09-07T03:52:28;99336.06;;;13.16;61.47
39491;BME280;25175;50.140;18.990;2023-09-07T03:55:40;99346.19;;;13.13;61.91
39491;BME280;25175;50.140;18.990;2023-09-07T03:58:48;99347.00;;;13.07;62.32
39491;BME280;25175;50.140;18.990;2023-09-07T04:02:13;99336.41;;;12.94;62.69
39491;BME280;25175;50.140;18.990;2023-09-07T04:05:30;99340.66;;;12.82;63.01
39491;BME280;25175;50.140;18.990;2023-09-07T04:08:35;99340.84;;;12.67;63.36
39491;BME280;25175;50.140;18.990;2023-09-07T04:11:41;99355.06;;;12.73;63.24
39491;BME280;25175;50.140;18.990;2023-09-07T04:15:01;99346.53;;;12.71;63.46
39491;BME280;25175;50.140;18.990;2023-09-07T04:18:10;99349.56;;;12.68;63.27
39491;BME280;25175;50.140;18.990;2023-09-07T04:21:16;99347.31;;;12.65;63.66
39491;BME280;25175;50.140;18.990;2023-09-07T04:24:23;99357.25;;;12.63;63.81
39491;BME280;25175;50.140;18.990;2023-09-07T04:27:29;99361.91;;;12.61;63.86
39491;BME280;25175;50.140;18.990;2023-09-07T04:31:26;99313.63;;;12.28;63.93
39491;BME280;25175;50.140;18.990;2023-09-07T04:34:18;99362.91;;;12.53;64.11
39491;BME280;25175;50.140;18.990;2023-09-07T04:37:23;99377.28;;;12.57;64.21
39491;BME280;25175;50.140;18.990;2023-09-07T04:40:28;99370.81;;;12.60;63.99
39491;BME280;25175;50.140;18.990;2023-09-07T04:43:33;99372.03;;;12.64;63.72
39491;BME280;25175;50.140;18.990;2023-09-07T04:46:38;99351.59;;;12.59;63.92
39491;BME280;25175;50.140;18.990;2023-09-07T04:50:13;99360.91;;;12.68;64.20
39491;BME280;25175;50.140;18.990;2023-09-07T04:53:19;99344.69;;;12.65;64.24
39491;BME280;25175;50.140;18.990;2023-09-07T04:56:24;99367.22;;;12.74;64.33
39491;BME280;25175;50.140;18.990;2023-09-07T04:59:30;99348.78;;;12.74;64.05
39491;BME280;25175;50.140;18.990;2023-09-07T05:02:36;99368.84;;;12.88;63.72
39491;BME280;25175;50.140;18.990;2023-09-07T05:06:00;99374.94;;;12.95;63.90
39491;BME280;25175;50.140;18.990;2023-09-07T05:09:27;99176.69;;;11.82;63.56
39491;BME280;25175;50.140;18.990;2023-09-07T05:12:34;99373.75;;;13.10;63.67
39491;BME280;25175;50.140;18.990;2023-09-07T05:15:47;99380.03;;;13.16;63.88
39491;BME280;25175;50.140;18.990;2023-09-07T05:19:16;99378.63;;;13.20;64.13
39491;BME280;25175;50.140;18.990;2023-09-07T05:22:30;99320.59;;;12.94;64.31
39491;BME280;25175;50.140;18.990;2023-09-07T05:25:43;99353.28;;;13.19;64.51
39491;BME280;25175;50.140;18.990;2023-09-07T05:28:49;99375.78;;;13.34;64.67
39491;BME280;25175;50.140;18.990;2023-09-07T05:31:54;99374.16;;;13.40;64.93
39491;BME280;25175;50.140;18.990;2023-09-07T05:35:31;99372.72;;;13.50;65.21
39491;BME280;25175;50.140;18.990;2023-09-07T05:38:39;99380.63;;;13.57;65.46
39491;BME280;25175;50.140;18.990;2023-09-07T05:41:44;99381.44;;;13.64;65.39
39491;BME280;25175;50.140;18.990;2023-09-07T05:44:49;99385.88;;;13.70;65.52
39491;BME280;25175;50.140;18.990;2023-09-07T05:47:55;99368.03;;;13.72;65.89
39491;BME280;25175;50.140;18.990;2023-09-07T05:50:59;99380.78;;;13.88;65.98
39491;BME280;25175;50.140;18.990;2023-09-07T05:54:34;99368.41;;;13.95;66.12
39491;BME280;25175;50.140;18.990;2023-09-07T05:57:39;99382.16;;;14.10;65.97
39491;BME280;25175;50.140;18.990;2023-09-07T06:00:44;99391.84;;;14.22;66.14
39491;BME280;25175;50.140;18.990;2023-09-07T06:03:50;99385.31;;;14.31;65.80
39491;BME280;25175;50.140;18.990;2023-09-07T06:06:54;99115.22;;;12.68;65.61
39491;BME280;25175;50.140;18.990;2023-09-07T06:10:03;99389.31;;;14.47;65.84
39491;BME280;25175;50.140;18.990;2023-09-07T06:13:10;99392.09;;;14.58;65.88
39491;BME280;25175;50.140;18.990;2023-09-07T06:16:15;99396.09;;;14.67;65.46
39491;BME280;25175;50.140;18.990;2023-09-07T06:19:56;99389.13;;;14.79;65.49
39491;BME280;25175;50.140;18.990;2023-09-07T06:23:03;99402.69;;;14.89;65.21
39491;BME280;25175;50.140;18.990;2023-09-07T06:26:10;99407.31;;;15.00;65.27
39491;BME280;25175;50.140;18.990;2023-09-07T06:29:16;99410.28;;;15.10;64.72
39491;BME280;25175;50.140;18.990;2023-09-07T06:32:21;99410.63;;;15.20;64.94
39491;BME280;25175;50.140;18.990;2023-09-07T06:35:26;99407.13;;;15.26;64.86
39491;BME280;25175;50.140;18.990;2023-09-07T06:39:04;99409.81;;;15.44;64.45
39491;BME280;25175;50.140;18.990;2023-09-07T06:42:12;99410.75;;;15.56;64.79
39491;BME280;25175;50.140;18.990;2023-09-07T06:45:23;99418.97;;;15.66;64.25
39491;BME280;25175;50.140;18.990;2023-09-07T06:48:29;99428.09;;;15.77;64.23
39491;BME280;25175;50.140;18.990;2023-09-07T06:51:34;99423.47;;;15.90;64.39
39491;BME280;25175;50.140;18.990;2023-09-07T06:55:11;99425.75;;;16.04;64.01
39491;BME280;25175;50.140;18.990;2023-09-07T06:58:19;99430.13;;;16.17;63.19
39491;BME280;25175;50.140;18.990;2023-09-07T07:01:24;99429.97;;;16.30;63.73
39491;BME280;25175;50.140;18.990;2023-09-07T07:04:29;99422.09;;;16.41;62.64
39491;BME280;25175;50.140;18.990;2023-09-07T07:07:52;99423.56;;;16.55;62.39
39491;BME280;25175;50.140;18.990;2023-09-07T07:11:06;99429.72;;;16.67;62.20
39491;BME280;25175;50.140;18.990;2023-09-07T07:14:15;99415.94;;;16.77;61.65
39491;BME280;25175;50.140;18.990;2023-09-07T07:17:19;99420.16;;;16.96;61.08
39491;BME280;25175;50.140;18.990;2023-09-07T07:20:25;99414.06;;;17.07;60.73
39491;BME280;25175;50.140;18.990;2023-09-07T07:23:32;99417.84;;;17.29;60.31
39491;BME280;25175;50.140;18.990;2023-09-07T07:26:38;99402.38;;;17.37;59.45
39491;BME280;25175;50.140;18.990;2023-09-07T07:29:46;99420.41;;;17.58;59.42
39491;BME280;25175;50.140;18.990;2023-09-07T07:32:52;99416.03;;;17.75;58.99
39491;BME280;25175;50.140;18.990;2023-09-07T07:35:56;99417.97;;;17.91;58.25
39491;BME280;25175;50.140;18.990;2023-09-07T07:39:02;99399.50;;;17.96;58.18
39491;BME280;25175;50.140;18.990;2023-09-07T07:42:36;99412.88;;;18.24;58.20
39491;BME280;25175;50.140;18.990;2023-09-07T07:45:45;99416.78;;;18.33;57.20
39491;BME280;25175;50.140;18.990;2023-09-07T07:48:50;99415.34;;;18.54;57.92
39491;BME280;25175;50.140;18.990;2023-09-07T07:51:55;99417.72;;;18.67;56.29
39491;BME280;25175;50.140;18.990;2023-09-07T07:55:01;99413.25;;;18.84;56.50
39491;BME280;25175;50.140;18.990;2023-09-07T07:58:08;99422.66;;;19.03;56.03
39491;BME280;25175;50.140;18.990;2023-09-07T08:01:42;99407.22;;;19.16;55.26
39491;BME280;25175;50.140;18.990;2023-09-07T08:04:48;99424.31;;;19.37;55.67
39491;BME280;25175;50.140;18.990;2023-09-07T08:07:53;99423.78;;;19.51;54.27
39491;BME280;25175;50.140;18.990;2023-09-07T08:10:58;99419.47;;;19.67;54.57
39491;BME280;25175;50.140;18.990;2023-09-07T08:14:07;99432.22;;;19.81;53.91
39491;BME280;25175;50.140;18.990;2023-09-07T08:17:16;99432.19;;;19.98;53.46
39491;BME280;25175;50.140;18.990;2023-09-07T08:20:21;99428.44;;;20.15;53.68
39491;BME280;25175;50.140;18.990;2023-09-07T08:23:27;99432.44;;;20.34;53.74
39491;BME280;25175;50.140;18.990;2023-09-07T08:26:32;99430.75;;;20.50;52.12
39491;BME280;25175;50.140;18.990;2023-09-07T08:29:38;99407.69;;;20.60;51.95
39491;BME280;25175;50.140;18.990;2023-09-07T08:32:45;99423.41;;;20.83;51.61
39491;BME280;25175;50.140;18.990;2023-09-07T08:35:53;99428.13;;;20.98;50.96
39491;BME280;25175;50.140;18.990;2023-09-07T08:38:58;99423.16;;;21.11;51.96
39491;BME280;25175;50.140;18.990;2023-09-07T08:42:09;99424.09;;;21.27;50.99
39491;BME280;25175;50.140;18.990;2023-09-07T08:45:21;99422.63;;;21.41;51.42
39491;BME280;25175;50.140;18.990;2023-09-07T08:48:34;99419.34;;;21.60;50.88
39491;BME280;25175;50.140;18.990;2023-09-07T08:51:53;99414.84;;;21.71;51.02
39491;BME280;25175;50.140;18.990;2023-09-07T08:55:20;99408.28;;;21.88;49.69
39491;BME280;25175;50.140;18.990;2023-09-07T08:58:25;99422.81;;;22.07;49.25
39491;BME280;25175;50.140;18.990;2023-09-07T09:01:31;99416.25;;;22.25;49.83
39491;BME280;25175;50.140;18.990;2023-09-07T09:04:38;99421.44;;;22.41;48.58
39491;BME280;25175;50.140;18.990;2023-09-07T09:07:44;99420.91;;;22.49;47.18
39491;BME280;25175;50.140;18.990;2023-09-07T09:10:59;99424.69;;;22.58;47.11
39491;BME280;25175;50.140;18.990;2023-09-07T09:14:05;99419.38;;;22.63;46.30
39491;BME280;25175;50.140;18.990;2023-09-07T09:17:13;99404.91;;;22.59;47.38
39491;BME280;25175;50.140;18.990;2023-09-07T09:20:37;99423.16;;;22.77;46.56
39491;BME280;25175;50.140;18.990;2023-09-07T09:23:44;99422.66;;;22.90;47.23
39491;BME280;25175;50.140;18.990;2023-09-07T09:26:49;99423.75;;;23.04;46.17
39491;BME280;25175;50.140;18.990;2023-09-07T09:30:27;99423.50;;;23.21;44.75
39491;BME280;25175;50.140;18.990;2023-09-07T09:33:33;99414.66;;;23.25;44.13
39491;BME280;25175;50.140;18.990;2023-09-07T09:36:42;99393.22;;;23.00;43.49
39491;BME280;25175;50.140;18.990;2023-09-07T09:39:49;99420.31;;;23.44;43.76
39491;BME280;25175;50.140;18.990;2023-09-07T09:42:57;99417.91;;;23.57;44.51
39491;BME280;25175;50.140;18.990;2023-09-07T09:46:35;99411.47;;;23.68;43.58
39491;BME280;25175;50.140;18.990;2023-09-07T09:49:42;99416.53;;;23.75;42.98
39491;BME280;25175;50.140;18.990;2023-09-07T09:52:52;99396.97;;;23.74;43.06
39491;BME280;25175;50.140;18.990;2023-09-07T09:55:57;99408.19;;;23.96;42.59
39491;BME280;25175;50.140;18.990;2023-09-07T09:59:02;99401.19;;;24.05;43.32
39491;BME280;25175;50.140;18.990;2023-09-07T10:02:08;99414.28;;;24.27;44.38
39491;BME280;25175;50.140;18.990;2023-09-07T10:05:56;99418.50;;;24.43;42.11
39491;BME280;25175;50.140;18.990;2023-09-07T10:09:14;99405.03;;;24.53;43.05
39491;BME280;25175;50.140;18.990;2023-09-07T10:13:05;99420.84;;;24.64;41.65
39491;BME280;25175;50.140;18.990;2023-09-07T10:16:04;99397.25;;;24.51;41.54
39491;BME280;25175;50.140;18.990;2023-09-07T10:19:15;99399.13;;;24.51;41.35
39491;BME280;25175;50.140;18.990;2023-09-07T10:22:23;99414.91;;;24.67;41.37
39491;BME280;25175;50.140;18.990;2023-09-07T10:26:04;99396.13;;;24.67;40.26
39491;BME280;25175;50.140;18.990;2023-09-07T10:29:09;99393.41;;;24.72;40.60
39491;BME280;25175;50.140;18.990;2023-09-07T10:32:16;99411.31;;;24.87;40.34
39491;BME280;25175;50.140;18.990;2023-09-07T10:35:21;99401.59;;;24.91;40.56
39491;BME280;25175;50.140;18.990;2023-09-07T10:38:28;99411.59;;;24.85;39.10
39491;BME280;25175;50.140;18.990;2023-09-07T10:42:03;99413.22;;;24.81;39.69
39491;BME280;25175;50.140;18.990;2023-09-07T10:45:13;99403.03;;;24.83;40.87
39491;BME280;25175;50.140;18.990;2023-09-07T10:48:19;99393.63;;;24.81;40.27
39491;BME280;25175;50.140;18.990;2023-09-07T10:51:25;99389.56;;;24.88;40.05
39491;BME280;25175;50.140;18.990;2023-09-07T10:54:30;99380.69;;;24.88;39.74
39491;BME280;25175;50.140;18.990;2023-09-07T10:57:48;99383.59;;;24.96;39.29
39491;BME280;25175;50.140;18.990;2023-09-07T11:01:14;99380.94;;;24.91;38.78
39491;BME280;25175;50.140;18.990;2023-09-07T11:04:19;99395.44;;;24.90;39.30
39491;BME280;25175;50.140;18.990;2023-09-07T11:07:24;99391.63;;;24.96;39.23
39491;BME280;25175;50.140;18.990;2023-09-07T11:10:32;99390.00;;;25.00;39.10
39491;BME280;25175;50.140;18.990;2023-09-07T11:13:40;99393.19;;;25.02;39.61
39491;BME280;25175;50.140;18.990;2023-09-07T11:17:00;99396.16;;;25.01;39.97
39491;BME280;25175;50.140;18.990;2023-09-07T11:20:07;99387.25;;;25.10;39.46
39491;BME280;25175;50.140;18.990;2023-09-07T11:23:14;99374.31;;;25.17;38.98
39491;BME280;25175;50.140;18.990;2023-09-07T11:26:20;99384.69;;;25.29;39.18
39491;BME280;25175;50.140;18.990;2023-09-07T11:29:31;99386.78;;;25.37;39.25
39491;BME280;25175;50.140;18.990;2023-09-07T11:32:49;99385.38;;;25.44;38.55
39491;BME280;25175;50.140;18.990;2023-09-07T11:35:54;99387.75;;;25.46;38.60
39491;BME280;25175;50.140;18.990;2023-09-07T11:38:58;99385.38;;;25.44;39.29
39491;BME280;25175;50.140;18.990;2023-09-07T11:42:08;99384.47;;;25.54;38.46
39491;BME280;25175;50.140;18.990;2023-09-07T11:45:15;99382.78;;;25.63;38.75
39491;BME280;25175;50.140;18.990;2023-09-07T11:48:21;99365.78;;;25.67;39.30
39491;BME280;25175;50.140;18.990;2023-09-07T11:51:25;99369.22;;;25.73;38.54
39491;BME280;25175;50.140;18.990;2023-09-07T11:54:49;99374.75;;;25.86;37.65
39491;BME280;25175;50.140;18.990;2023-09-07T11:58:17;99367.47;;;25.87;38.12
39491;BME280;25175;50.140;18.990;2023-09-07T12:01:29;99361.81;;;25.88;38.27
39491;BME280;25175;50.140;18.990;2023-09-07T12:04:34;99367.59;;;26.00;38.55
39491;BME280;25175;50.140;18.990;2023-09-07T12:07:40;99348.72;;;25.82;37.87
39491;BME280;25175;50.140;18.990;2023-09-07T12:10:45;99369.41;;;26.05;37.59
39491;BME280;25175;50.140;18.990;2023-09-07T12:13:50;99365.94;;;26.04;37.01
39491;BME280;25175;50.140;18.990;2023-09-07T12:17:31;99360.03;;;26.02;37.61
39491;BME280;25175;50.140;18.990;2023-09-07T12:20:37;99363.00;;;26.01;37.51
39491;BME280;25175;50.140;18.990;2023-09-07T12:23:41;99350.94;;;25.98;37.16
39491;BME280;25175;50.140;18.990;2023-09-07T12:26:46;99353.28;;;26.05;38.15
39491;BME280;25175;50.140;18.990;2023-09-07T12:29:51;99350.31;;;26.06;36.76
39491;BME280;25175;50.140;18.990;2023-09-07T12:36:39;99349.25;;;26.02;37.97
39491;BME280;25175;50.140;18.990;2023-09-07T12:39:44;99338.66;;;26.11;37.00
39491;BME280;25175;50.140;18.990;2023-09-07T12:42:48;99340.84;;;26.09;37.25
39491;BME280;25175;50.140;18.990;2023-09-07T12:45:55;99342.38;;;26.15;37.35
39491;BME280;25175;50.140;18.990;2023-09-07T12:49:02;99294.09;;;25.81;35.69
39491;BME280;25175;50.140;18.990;2023-09-07T12:52:28;99334.09;;;26.11;36.20
39491;BME280;25175;50.140;18.990;2023-09-07T12:55:39;99339.97;;;26.13;35.93
39491;BME280;25175;50.140;18.990;2023-09-07T12:58:44;99335.97;;;26.11;35.78
39491;BME280;25175;50.140;18.990;2023-09-07T13:01:50;99243.75;;;25.63;36.48
39491;BME280;25175;50.140;18.990;2023-09-07T13:05:00;99340.44;;;26.20;36.00
39491;BME280;25175;50.140;18.990;2023-09-07T13:08:06;99342.03;;;26.21;36.26
39491;BME280;25175;50.140;18.990;2023-09-07T13:11:11;99313.13;;;26.08;35.85
39491;BME280;25175;50.140;18.990;2023-09-07T13:14:46;99329.16;;;26.18;35.61
39491;BME280;25175;50.140;18.990;2023-09-07T13:17:51;99325.44;;;26.14;35.20
39491;BME280;25175;50.140;18.990;2023-09-07T13:20:59;99324.59;;;26.19;34.98
39491;BME280;25175;50.140;18.990;2023-09-07T13:24:05;99320.53;;;26.21;36.31
39491;BME280;25175;50.140;18.990;2023-09-07T13:27:09;99324.53;;;26.24;35.42
39491;BME280;25175;50.140;18.990;2023-09-07T13:30:15;99329.09;;;26.23;36.48
39491;BME280;25175;50.140;18.990;2023-09-07T13:33:19;99325.06;;;26.26;36.34
39491;BME280;25175;50.140;18.990;2023-09-07T13:36:53;99325.31;;;26.24;35.63
39491;BME280;25175;50.140;18.990;2023-09-07T13:39:58;99315.19;;;26.16;35.95
39491;BME280;25175;50.140;18.990;2023-09-07T13:43:03;99327.06;;;26.15;35.54
39491;BME280;25175;50.140;18.990;2023-09-07T13:46:10;99312.84;;;26.10;35.00
39491;BME280;25175;50.140;18.990;2023-09-07T13:49:15;99317.44;;;26.09;35.43
39491;BME280;25175;50.140;18.990;2023-09-07T13:52:23;99312.19;;;25.99;34.41
39491;BME280;25175;50.140;18.990;2023-09-07T13:55:29;99312.75;;;25.96;35.81
39491;BME280;25175;50.140;18.990;2023-09-07T13:58:34;99303.16;;;25.90;36.59
39491;BME280;25175;50.140;18.990;2023-09-07T14:01:40;99307.16;;;25.93;36.29
39491;BME280;25175;50.140;18.990;2023-09-07T14:04:44;99306.06;;;25.94;35.82
39491;BME280;25175;50.140;18.990;2023-09-07T14:07:54;99310.06;;;25.96;36.39
39491;BME280;25175;50.140;18.990;2023-09-07T14:11:24;99313.56;;;25.97;36.10
39491;BME280;25175;50.140;18.990;2023-09-07T14:14:58;99306.44;;;25.87;34.93
39491;BME280;25175;50.140;18.990;2023-09-07T14:18:02;99313.47;;;25.83;35.73
39491;BME280;25175;50.140;18.990;2023-09-07T14:21:13;99305.19;;;25.80;35.76
39491;BME280;25175;50.140;18.990;2023-09-07T14:24:21;99308.16;;;25.78;36.01
39491;BME280;25175;50.140;18.990;2023-09-07T14:27:54;99297.94;;;25.75;36.18
39491;BME280;25175;50.140;18.990;2023-09-07T14:30:59;99303.38;;;25.70;35.85
39491;BME280;25175;50.140;18.990;2023-09-07T14:34:05;99302.03;;;25.68;36.63
39491;BME280;25175;50.140;18.990;2023-09-07T14:37:10;99297.56;;;25.58;36.63
39491;BME280;25175;50.140;18.990;2023-09-07T14:40:18;99298.66;;;25.57;37.02
39491;BME280;25175;50.140;18.990;2023-09-07T14:43:24;99289.78;;;25.57;37.08
39491;BME280;25175;50.140;18.990;2023-09-07T14:46:59;99296.84;;;25.53;36.47
39491;BME280;25175;50.140;18.990;2023-09-07T14:50:07;99293.06;;;25.54;36.76
39491;BME280;25175;50.140;18.990;2023-09-07T14:53:13;99278.03;;;25.53;36.58
39491;BME280;25175;50.140;18.990;2023-09-07T14:56:21;99227.00;;;25.24;36.75
39491;BME280;25175;50.140;18.990;2023-09-07T14:59:27;99277.22;;;25.52;36.50
39491;BME280;25175;50.140;18.990;2023-09-07T15:02:32;99274.06;;;25.45;36.98
39491;BME280;25175;50.140;18.990;2023-09-07T15:05:37;99273.00;;;25.46;36.71
39491;BME280;25175;50.140;18.990;2023-09-07T15:08:42;99284.50;;;25.52;36.62
39491;BME280;25175;50.140;18.990;2023-09-07T15:12:25;99278.09;;;25.48;37.13
39491;BME280;25175;50.140;18.990;2023-09-07T15:15:30;99271.44;;;25.40;37.56
39491;BME280;25175;50.140;18.990;2023-09-07T15:18:39;99281.09;;;25.41;37.52
39491;BME280;25175;50.140;18.990;2023-09-07T15:21:43;99274.69;;;25.37;37.72
39491;BME280;25175;50.140;18.990;2023-09-07T15:24:48;99276.13;;;25.30;37.98
39491;BME280;25175;50.140;18.990;2023-09-07T15:28:26;99271.09;;;25.23;37.89
39491;BME280;25175;50.140;18.990;2023-09-07T15:31:32;99265.75;;;25.18;37.83
39491;BME280;25175;50.140;18.990;2023-09-07T15:34:36;99267.41;;;25.14;37.52
39491;BME280;25175;50.140;18.990;2023-09-07T15:37:42;99273.09;;;25.08;38.06
39491;BME280;25175;50.140;18.990;2023-09-07T15:40:47;99226.44;;;24.70;38.35
39491;BME280;25175;50.140;18.990;2023-09-07T15:43:56;99278.78;;;25.01;38.69
39491;BME280;25175;50.140;18.990;2023-09-07T15:47:29;99278.28;;;24.99;39.25
39491;BME280;25175;50.140;18.990;2023-09-07T15:50:36;99282.88;;;24.94;38.99
39491;BME280;25175;50.140;18.990;2023-09-07T15:53:41;99261.72;;;24.87;39.68
39491;BME280;25175;50.140;18.990;2023-09-07T15:56:47;99275.69;;;24.89;38.72
39491;BME280;25175;50.140;18.990;2023-09-07T15:59:54;99254.84;;;24.76;38.90
39491;BME280;25175;50.140;18.990;2023-09-07T16:03:00;99271.13;;;24.85;39.74
39491;BME280;25175;50.140;18.990;2023-09-07T16:06:07;99272.50;;;24.82;39.98
39491;BME280;25175;50.140;18.990;2023-09-07T16:09:12;99276.31;;;24.76;40.01
39491;BME280;25175;50.140;18.990;2023-09-07T16:12:17;99268.28;;;24.71;40.31
39491;BME280;25175;50.140;18.990;2023-09-07T16:15:25;99274.78;;;24.65;40.56
39491;BME280;25175;50.140;18.990;2023-09-07T16:18:29;99271.63;;;24.58;40.49
39491;BME280;25175;50.140;18.990;2023-09-07T16:21:35;99265.19;;;24.54;40.95
39491;BME280;25175;50.140;18.990;2023-09-07T16:25:10;99282.38;;;24.53;41.40
39491;BME280;25175;50.140;18.990;2023-09-07T16:28:16;99273.00;;;24.51;41.71
39491;BME280;25175;50.140;18.990;2023-09-07T16:31:23;99272.25;;;24.45;41.50
39491;BME280;25175;50.140;18.990;2023-09-07T16:34:29;99280.34;;;24.35;41.29
39491;BME280;25175;50.140;18.990;2023-09-07T16:37:33;99277.69;;;24.30;41.74
39491;BME280;25175;50.140;18.990;2023-09-07T16:40:40;99275.84;;;24.26;41.57
39491;BME280;25175;50.140;18.990;2023-09-07T16:43:45;99280.97;;;24.22;41.81
39491;BME280;25175;50.140;18.990;2023-09-07T16:47:42;99277.75;;;24.20;42.06